createdAt,value
2019-03-23T00:00:13.126Z,8.30
2019-03-23T00:02:43.384Z,8.29
2019-03-23T00:05:12.515Z,8.23
2019-03-23T00:07:41.330Z,8.35
2019-03-23T00:10:10.936Z,8.39
2019-03-23T00:12:39.717Z,8.28
2019-03-23T00:15:09.080Z,8.38
2019-03-23T00:17:37.914Z,8.31
2019-03-23T00:20:06.735Z,8.33
2019-03-23T00:22:35.834Z,8.23
2019-03-23T00:25:04.920Z,8.21
2019-03-23T00:27:33.766Z,8.08
2019-03-23T00:30:02.555Z,7.99
2019-03-23T00:32:31.474Z,7.93
2019-03-23T00:35:00.366Z,7.88
2019-03-23T00:37:29.401Z,7.84
2019-03-23T00:39:58.217Z,7.82
2019-03-23T00:42:27.332Z,7.73
2019-03-23T00:44:56.599Z,7.67
2019-03-23T00:47:25.424Z,7.59
2019-03-23T00:49:54.340Z,7.54
2019-03-23T00:52:23.273Z,7.44
2019-03-23T00:54:52.078Z,7.51
2019-03-23T00:57:20.961Z,7.49
2019-03-23T00:59:49.710Z,7.54
2019-03-23T01:02:18.977Z,7.55
2019-03-23T01:04:47.803Z,7.67
2019-03-23T01:07:16.925Z,7.66
2019-03-23T01:09:45.777Z,7.56
2019-03-23T01:12:14.565Z,7.65
2019-03-23T01:14:43.511Z,7.62
2019-03-23T01:17:12.356Z,7.66
2019-03-23T01:19:41.256Z,7.76
2019-03-23T01:22:11.155Z,7.68
2019-03-23T01:24:40.306Z,7.62
2019-03-23T01:27:14.720Z,7.65
2019-03-23T01:29:44.325Z,7.54
2019-03-23T01:32:13.481Z,7.49
2019-03-23T01:34:42.296Z,7.23
2019-03-23T01:37:11.146Z,7.07
2019-03-23T01:39:39.893Z,7.00
2019-03-23T01:42:08.832Z,7.07
2019-03-23T01:44:38.373Z,6.97
2019-03-23T01:47:07.259Z,7.04
2019-03-23T01:49:36.056Z,7.10
2019-03-23T01:52:04.770Z,7.11
2019-03-23T01:54:34.017Z,7.09
2019-03-23T01:57:02.790Z,7.08
2019-03-23T01:59:31.960Z,6.97
2019-03-23T02:02:01.336Z,7.00
2019-03-23T02:04:30.441Z,6.86
2019-03-23T02:06:59.504Z,6.76
2019-03-23T02:09:28.702Z,6.88
2019-03-23T02:11:57.553Z,6.99
2019-03-23T02:14:26.629Z,7.10
2019-03-23T02:16:55.481Z,7.08
2019-03-23T02:19:24.402Z,7.06
2019-03-23T02:21:53.226Z,7.17
2019-03-23T02:24:22.067Z,7.09
2019-03-23T02:26:55.238Z,7.05
2019-03-23T02:29:24.944Z,7.01
2019-03-23T02:31:53.829Z,6.95
2019-03-23T02:34:22.783Z,7.05
2019-03-23T02:36:51.573Z,6.85
2019-03-23T02:39:21.124Z,6.68
2019-03-23T02:41:49.974Z,6.59
2019-03-23T02:44:19.546Z,6.49
2019-03-23T02:46:48.426Z,6.44
2019-03-23T02:49:17.365Z,6.46
2019-03-23T02:51:46.225Z,6.51
2019-03-23T02:54:15.062Z,6.54
2019-03-23T02:56:43.920Z,6.58
2019-03-23T02:59:13.129Z,6.50
2019-03-23T03:01:42.264Z,6.43
2019-03-23T03:04:11.061Z,6.39
2019-03-23T03:06:39.909Z,6.42
2019-03-23T03:09:09.047Z,6.42
2019-03-23T03:11:38.194Z,6.46
2019-03-23T03:14:07.118Z,6.46
2019-03-23T03:16:36.023Z,6.46
2019-03-23T03:19:04.931Z,6.53
2019-03-23T03:21:34.854Z,6.52
2019-03-23T03:24:03.746Z,6.56
2019-03-23T03:26:32.601Z,6.52
2019-03-23T03:29:01.459Z,6.49
2019-03-23T03:31:30.427Z,6.55
2019-03-23T03:33:59.245Z,6.57
2019-03-23T03:36:30.035Z,6.38
2019-03-23T03:38:59.092Z,6.18
2019-03-23T03:41:28.096Z,6.23
2019-03-23T03:43:56.905Z,6.38
2019-03-23T03:46:26.113Z,6.38
2019-03-23T03:48:54.938Z,6.30
2019-03-23T03:51:24.160Z,6.11
2019-03-23T03:53:52.980Z,5.99
2019-03-23T03:56:21.775Z,6.08
2019-03-23T03:58:51.015Z,6.01
2019-03-23T04:01:19.915Z,5.88
2019-03-23T04:03:48.898Z,5.91
2019-03-23T04:06:17.852Z,5.95
2019-03-23T04:08:48.027Z,5.89
2019-03-23T04:11:16.822Z,5.85
2019-03-23T04:13:45.959Z,5.80
2019-03-23T04:16:15.088Z,5.71
2019-03-23T04:18:43.916Z,5.74
2019-03-23T04:21:12.726Z,5.60
2019-03-23T04:23:41.856Z,5.53
2019-03-23T04:26:10.689Z,5.63
2019-03-23T04:28:39.471Z,5.75
2019-03-23T04:31:10.453Z,5.76
2019-03-23T04:33:39.314Z,5.80
2019-03-23T04:36:08.112Z,5.89
2019-03-23T04:38:37.198Z,5.91
2019-03-23T04:41:06.341Z,5.94
2019-03-23T04:43:35.387Z,5.91
2019-03-23T04:46:04.245Z,6.02
2019-03-23T04:48:33.385Z,5.99
2019-03-23T04:51:02.173Z,6.00
2019-03-23T04:53:31.369Z,6.03
2019-03-23T04:56:00.198Z,6.03
2019-03-23T04:58:30.794Z,5.93
2019-03-23T05:01:00.988Z,5.91
2019-03-23T05:03:30.389Z,5.91
2019-03-23T05:05:59.173Z,5.66
2019-03-23T05:08:33.189Z,5.48
2019-03-23T05:10:58.735Z,5.50
2019-03-23T05:13:28.689Z,5.42
2019-03-23T05:15:57.477Z,5.36
2019-03-23T05:18:26.575Z,5.39
2019-03-23T05:20:55.671Z,5.22
2019-03-23T05:23:24.812Z,5.14
2019-03-23T05:25:53.913Z,5.14
2019-03-23T05:28:23.054Z,5.13
2019-03-23T05:30:52.413Z,5.22
2019-03-23T05:33:21.244Z,5.29
2019-03-23T05:35:50.014Z,5.32
2019-03-23T05:38:18.813Z,5.42
2019-03-23T05:40:47.605Z,5.63
2019-03-23T05:43:16.862Z,5.71
2019-03-23T05:45:45.686Z,5.66
2019-03-23T05:48:14.854Z,5.84
2019-03-23T05:50:43.980Z,5.80
2019-03-23T05:53:13.099Z,6.02
2019-03-23T05:55:42.193Z,6.05
2019-03-23T05:58:11.032Z,6.00
2019-03-23T06:00:39.817Z,5.82
2019-03-23T06:03:08.623Z,5.75
2019-03-23T06:05:37.452Z,5.75
2019-03-23T06:08:06.485Z,5.80
2019-03-23T06:10:36.271Z,5.88
2019-03-23T06:13:05.326Z,5.91
2019-03-23T06:15:34.114Z,6.06
2019-03-23T06:18:03.287Z,5.98
2019-03-23T06:20:32.169Z,6.09
2019-03-23T06:23:00.967Z,6.01
2019-03-23T06:25:29.791Z,6.07
2019-03-23T06:27:58.667Z,6.14
2019-03-23T06:30:27.544Z,6.26
2019-03-23T06:32:59.345Z,6.22
2019-03-23T06:35:28.441Z,6.35
2019-03-23T06:37:57.239Z,6.45
2019-03-23T06:40:26.324Z,6.56
2019-03-23T06:42:59.700Z,6.91
2019-03-23T06:45:26.514Z,7.07
2019-03-23T06:47:55.614Z,7.27
2019-03-23T06:50:24.400Z,7.49
2019-03-23T06:52:53.187Z,7.69
2019-03-23T06:55:21.936Z,7.87
2019-03-23T06:57:50.704Z,8.01
2019-03-23T07:00:19.477Z,8.00
2019-03-23T07:02:48.884Z,8.12
2019-03-23T07:05:17.668Z,8.23
2019-03-23T07:07:46.845Z,8.28
2019-03-23T07:10:16.119Z,8.36
2019-03-23T07:12:44.855Z,8.33
2019-03-23T07:15:20.055Z,8.26
2019-03-23T07:17:44.383Z,8.55
2019-03-23T07:20:13.512Z,8.69
2019-03-23T07:22:42.865Z,8.85
2019-03-23T07:25:11.683Z,9.06
2019-03-23T07:27:40.456Z,9.14
2019-03-23T07:30:12.266Z,9.09
2019-03-23T07:32:41.434Z,9.28
2019-03-23T07:35:10.545Z,9.60
2019-03-23T07:37:39.743Z,9.68
2019-03-23T07:40:08.928Z,9.57
2019-03-23T07:42:37.792Z,9.77
2019-03-23T07:45:06.769Z,9.88
2019-03-23T07:47:35.665Z,10.04
2019-03-23T07:50:05.512Z,10.13
2019-03-23T07:52:34.595Z,10.23
2019-03-23T07:55:10.729Z,10.17
2019-03-23T07:57:40.050Z,10.24
2019-03-23T08:00:10.592Z,10.27
2019-03-23T08:02:39.816Z,10.56
2019-03-23T08:05:08.668Z,10.82
2019-03-23T08:07:37.574Z,10.83
2019-03-23T08:10:06.527Z,10.80
2019-03-23T08:12:35.440Z,11.04
2019-03-23T08:15:05.277Z,10.93
2019-03-23T08:17:34.120Z,11.25
2019-03-23T08:20:03.512Z,11.16
2019-03-23T08:22:32.693Z,11.51
2019-03-23T08:25:01.614Z,11.28
2019-03-23T08:27:30.413Z,11.28
2019-03-23T08:29:59.369Z,11.50
2019-03-23T08:32:28.891Z,11.46
2019-03-23T08:34:58.727Z,11.90
2019-03-23T08:37:27.889Z,12.06
2019-03-23T08:39:56.849Z,12.16
2019-03-23T08:42:26.827Z,12.31
2019-03-23T08:44:55.571Z,12.71
2019-03-23T08:47:24.404Z,12.70
2019-03-23T08:49:53.435Z,12.78
2019-03-23T08:52:22.329Z,12.75
2019-03-23T08:54:51.076Z,13.01
2019-03-23T08:57:19.873Z,13.07
2019-03-23T08:59:48.987Z,13.14
2019-03-23T09:02:18.091Z,13.23
2019-03-23T09:04:47.303Z,13.34
2019-03-23T09:07:16.473Z,13.11
2019-03-23T09:09:45.422Z,13.19
2019-03-23T09:12:14.347Z,13.49
2019-03-23T09:14:43.300Z,13.80
2019-03-23T09:17:12.432Z,13.86
2019-03-23T09:19:41.592Z,14.08
2019-03-23T09:22:10.409Z,14.21
2019-03-23T09:24:39.190Z,14.33
2019-03-23T09:27:08.396Z,14.44
2019-03-23T09:29:37.517Z,14.34
2019-03-23T09:32:06.385Z,14.50
2019-03-23T09:34:35.480Z,14.57
2019-03-23T09:37:04.467Z,14.69
2019-03-23T09:39:33.569Z,14.78
2019-03-23T09:42:02.397Z,14.98
2019-03-23T09:44:31.256Z,15.52
2019-03-23T09:47:00.067Z,15.72
2019-03-23T09:49:31.297Z,15.76
2019-03-23T09:52:00.169Z,15.75
2019-03-23T09:54:29.092Z,16.14
2019-03-23T09:56:59.584Z,16.29
2019-03-23T09:59:29.329Z,16.20
2019-03-23T10:01:58.408Z,16.49
2019-03-23T10:04:27.264Z,16.42
2019-03-23T10:06:56.031Z,16.83
2019-03-23T10:09:24.899Z,17.08
2019-03-23T10:11:53.703Z,17.34
2019-03-23T10:14:22.806Z,17.26
2019-03-23T10:16:51.682Z,17.47
2019-03-23T10:19:20.604Z,17.71
2019-03-23T10:21:49.424Z,17.33
2019-03-23T10:24:18.238Z,17.72
2019-03-23T10:26:47.077Z,18.14
2019-03-23T10:29:16.169Z,17.89
2019-03-23T10:31:45.510Z,17.76
2019-03-23T10:34:14.335Z,18.08
2019-03-23T10:36:43.189Z,18.13
2019-03-23T10:39:11.970Z,18.19
2019-03-23T10:41:40.840Z,18.36
2019-03-23T10:44:10.118Z,18.36
2019-03-23T10:46:39.646Z,18.56
2019-03-23T10:49:09.022Z,19.20
2019-03-23T10:51:37.938Z,19.41
2019-03-23T10:54:07.080Z,19.45
2019-03-23T10:56:36.046Z,19.54
2019-03-23T10:59:05.211Z,19.76
2019-03-23T11:01:34.715Z,19.34
2019-03-23T11:04:03.523Z,19.44
2019-03-23T11:06:32.450Z,19.39
2019-03-23T11:09:01.484Z,19.18
2019-03-23T11:11:32.142Z,19.27
2019-03-23T11:14:02.214Z,19.75
2019-03-23T11:16:30.958Z,19.59
2019-03-23T11:19:00.136Z,19.62
2019-03-23T11:21:28.954Z,19.12
2019-03-23T11:23:57.812Z,19.54
2019-03-23T11:26:28.134Z,19.82
2019-03-23T11:28:57.512Z,20.23
2019-03-23T11:31:26.339Z,19.97
2019-03-23T11:33:56.242Z,20.22
2019-03-23T11:36:25.196Z,19.84
2019-03-23T11:38:54.011Z,19.68
2019-03-23T11:41:23.043Z,19.66
2019-03-23T11:43:51.934Z,19.99
2019-03-23T11:46:21.030Z,19.61
2019-03-23T11:48:50.445Z,20.08
2019-03-23T11:51:19.644Z,19.83
2019-03-23T11:53:48.424Z,20.13
2019-03-23T11:56:17.475Z,20.23
2019-03-23T11:58:46.554Z,20.45
2019-03-23T12:01:15.401Z,20.69
2019-03-23T12:03:44.483Z,20.57
2019-03-23T12:06:13.334Z,20.82
2019-03-23T12:08:42.209Z,20.92
2019-03-23T12:11:11.025Z,21.05
2019-03-23T12:13:40.061Z,21.36
2019-03-23T12:16:09.330Z,21.38
2019-03-23T12:18:38.227Z,21.05
2019-03-23T12:21:07.085Z,21.45
2019-03-23T12:23:36.157Z,21.20
2019-03-23T12:26:05.438Z,20.83
2019-03-23T12:28:34.808Z,20.72
2019-03-23T12:31:11.953Z,20.74
2019-03-23T12:33:47.002Z,20.91
2019-03-23T12:36:16.013Z,21.00
2019-03-23T12:38:45.012Z,21.00
2019-03-23T12:41:22.721Z,20.78
2019-03-23T12:43:44.959Z,20.62
2019-03-23T12:46:14.859Z,20.46
2019-03-23T12:48:43.962Z,21.11
2019-03-23T12:51:12.764Z,21.28
2019-03-23T12:53:42.115Z,20.69
2019-03-23T12:56:11.575Z,20.64
2019-03-23T12:58:40.454Z,20.54
2019-03-23T13:01:09.293Z,20.63
2019-03-23T13:03:38.184Z,20.44
2019-03-23T13:06:07.036Z,20.55
2019-03-23T13:08:35.886Z,20.89
2019-03-23T13:11:04.888Z,21.37
2019-03-23T13:13:34.158Z,21.70
2019-03-23T13:16:02.986Z,21.38
2019-03-23T13:18:31.913Z,21.47
2019-03-23T13:21:03.145Z,21.53
2019-03-23T13:23:34.089Z,22.06
2019-03-23T13:26:02.903Z,22.33
2019-03-23T13:28:31.671Z,23.93
2019-03-23T13:31:01.962Z,24.34
2019-03-23T13:33:30.751Z,25.09
2019-03-23T13:35:59.648Z,26.36
2019-03-23T13:38:29.499Z,26.09
2019-03-23T13:40:58.562Z,27.20
2019-03-23T13:43:27.907Z,28.10
2019-03-23T13:45:56.809Z,27.50
2019-03-23T13:48:25.808Z,27.29
2019-03-23T13:50:55.256Z,28.65
2019-03-23T13:53:24.351Z,29.07
2019-03-23T13:55:53.561Z,28.53
2019-03-23T13:58:22.680Z,30.21
2019-03-23T14:00:51.941Z,30.81
2019-03-23T14:03:20.693Z,31.12
2019-03-23T14:05:49.495Z,31.45
2019-03-23T14:08:19.699Z,30.08
2019-03-23T14:10:49.355Z,29.87
2019-03-23T14:13:18.563Z,30.89
2019-03-23T14:15:47.930Z,31.52
2019-03-23T14:18:17.511Z,31.81
2019-03-23T14:20:46.480Z,30.93
2019-03-23T14:23:15.632Z,30.05
2019-03-23T14:25:44.981Z,29.86
2019-03-23T14:28:14.143Z,31.04
2019-03-23T14:30:43.230Z,32.95
2019-03-23T14:33:12.394Z,32.21
2019-03-23T14:35:46.031Z,31.98
2019-03-23T14:38:14.947Z,32.41
2019-03-23T14:40:43.900Z,30.65
2019-03-23T14:43:12.686Z,31.18
2019-03-23T14:45:41.670Z,32.13
2019-03-23T14:48:10.621Z,32.94
2019-03-23T14:50:39.414Z,32.20
2019-03-23T14:53:08.277Z,32.54
2019-03-23T14:55:37.533Z,31.70
2019-03-23T14:58:06.602Z,31.83
2019-03-23T15:00:36.172Z,32.67
2019-03-23T15:03:04.959Z,32.33
2019-03-23T15:05:33.773Z,33.84
2019-03-23T15:08:02.671Z,31.31
2019-03-23T15:10:31.478Z,32.47
2019-03-23T15:13:01.404Z,31.54
2019-03-23T15:15:30.226Z,32.02
2019-03-23T15:18:00.138Z,30.89
2019-03-23T15:20:28.891Z,31.52
2019-03-23T15:22:58.266Z,31.38
2019-03-23T15:25:27.390Z,30.75
2019-03-23T15:27:58.390Z,31.79
2019-03-23T15:30:27.181Z,32.68
2019-03-23T15:32:56.038Z,33.07
2019-03-23T15:35:24.835Z,34.74
2019-03-23T15:37:53.656Z,33.57
2019-03-23T15:40:22.461Z,32.43
2019-03-23T15:42:52.967Z,30.78
2019-03-23T15:45:21.795Z,29.58
2019-03-23T15:47:50.687Z,30.37
2019-03-23T15:50:19.859Z,30.14
2019-03-23T15:52:48.764Z,29.53
2019-03-23T15:55:17.628Z,29.30
2019-03-23T15:57:46.409Z,30.37
2019-03-23T16:00:25.027Z,30.40
2019-03-23T16:02:53.810Z,30.23
2019-03-23T16:05:23.085Z,29.41
2019-03-23T16:07:52.053Z,29.09
2019-03-23T16:10:20.894Z,29.82
2019-03-23T16:12:50.113Z,29.44
2019-03-23T16:15:19.000Z,29.56
2019-03-23T16:17:48.011Z,28.63
2019-03-23T16:20:17.301Z,28.05
2019-03-23T16:22:46.745Z,28.08
2019-03-23T16:25:15.567Z,29.12
2019-03-23T16:27:44.783Z,28.44
2019-03-23T16:30:16.217Z,27.40
2019-03-23T16:32:45.009Z,27.82
2019-03-23T16:35:13.753Z,27.14
2019-03-23T16:37:42.592Z,27.63
2019-03-23T16:40:11.485Z,27.77
2019-03-23T16:42:45.217Z,26.17
2019-03-23T16:45:11.167Z,26.15
2019-03-23T16:47:40.067Z,26.31
2019-03-23T16:50:09.645Z,25.96
2019-03-23T16:52:39.585Z,26.12
2019-03-23T16:55:08.884Z,25.50
2019-03-23T16:57:37.809Z,23.17
2019-03-23T17:00:07.665Z,21.58
2019-03-23T17:02:36.749Z,20.76
2019-03-23T17:05:06.011Z,20.22
2019-03-23T17:07:35.938Z,19.91
2019-03-23T17:10:05.915Z,20.06
2019-03-23T17:12:34.944Z,19.78
2019-03-23T17:15:04.644Z,19.38
2019-03-23T17:17:33.648Z,18.89
2019-03-23T17:20:03.213Z,18.45
2019-03-23T17:22:32.156Z,18.59
2019-03-23T17:25:01.244Z,18.38
2019-03-23T17:27:30.437Z,17.96
2019-03-23T17:29:59.233Z,17.96
2019-03-23T17:32:28.171Z,17.86
2019-03-23T17:35:00.973Z,17.72
2019-03-23T17:37:30.388Z,17.39
2019-03-23T17:39:59.244Z,17.05
2019-03-23T17:42:31.475Z,16.85
2019-03-23T17:45:00.364Z,17.01
2019-03-23T17:47:30.410Z,16.95
2019-03-23T17:49:59.960Z,16.64
2019-03-23T17:52:28.746Z,16.43
2019-03-23T17:54:57.986Z,16.41
2019-03-23T17:57:27.631Z,16.27
2019-03-23T17:59:56.405Z,15.86
2019-03-23T18:02:25.409Z,15.85
2019-03-23T18:04:54.278Z,15.71
2019-03-23T18:07:25.401Z,15.56
2019-03-23T18:09:54.181Z,15.68
2019-03-23T18:12:22.982Z,15.48
2019-03-23T18:14:51.836Z,15.30
2019-03-23T18:17:21.702Z,15.11
2019-03-23T18:19:50.566Z,14.97
2019-03-23T18:22:19.397Z,14.85
2019-03-23T18:24:49.559Z,14.82
2019-03-23T18:27:18.930Z,14.99
2019-03-23T18:29:50.775Z,14.86
2019-03-23T18:32:19.684Z,14.71
2019-03-23T18:34:49.139Z,14.73
2019-03-23T18:37:19.369Z,14.68
2019-03-23T18:39:48.594Z,14.56
2019-03-23T18:42:17.431Z,14.50
2019-03-23T18:44:46.987Z,14.50
2019-03-23T18:47:16.738Z,14.34
2019-03-23T18:49:46.426Z,14.36
2019-03-23T18:52:17.048Z,14.34
2019-03-23T18:54:46.070Z,14.41
2019-03-23T18:57:15.343Z,14.37
2019-03-23T18:59:44.279Z,14.34
2019-03-23T19:02:13.166Z,14.38
2019-03-23T19:04:42.238Z,14.36
2019-03-23T19:07:11.049Z,14.28
2019-03-23T19:09:39.946Z,14.33
2019-03-23T19:12:08.924Z,14.40
2019-03-23T19:14:38.159Z,14.39
2019-03-23T19:17:07.019Z,14.47
2019-03-23T19:19:36.023Z,14.42
2019-03-23T19:22:04.858Z,14.22
2019-03-23T19:24:33.663Z,14.04
2019-03-23T19:27:03.132Z,14.03
2019-03-23T19:29:31.999Z,14.02
2019-03-23T19:32:01.987Z,13.92
2019-03-23T19:34:31.904Z,13.66
2019-03-23T19:37:00.785Z,13.49
2019-03-23T19:39:29.951Z,13.36
2019-03-23T19:41:58.899Z,13.35
2019-03-23T19:44:28.167Z,13.36
2019-03-23T19:46:57.281Z,13.23
2019-03-23T19:49:26.170Z,13.10
2019-03-23T19:51:54.965Z,13.04
2019-03-23T19:54:23.791Z,12.98
2019-03-23T19:56:53.080Z,12.87
2019-03-23T19:59:21.833Z,12.94
2019-03-23T20:01:50.732Z,12.84
2019-03-23T20:04:20.468Z,12.72
2019-03-23T20:06:49.398Z,12.73
2019-03-23T20:09:18.489Z,12.60
2019-03-23T20:11:48.061Z,12.55
2019-03-23T20:14:17.111Z,12.34
2019-03-23T20:16:45.922Z,12.26
2019-03-23T20:19:14.809Z,12.27
2019-03-23T20:21:43.615Z,12.48
2019-03-23T20:24:13.046Z,12.79
2019-03-23T20:26:41.875Z,12.77
2019-03-23T20:29:10.995Z,12.69
2019-03-23T20:31:39.905Z,12.52
2019-03-23T20:34:08.725Z,12.56
2019-03-23T20:36:37.829Z,12.50
2019-03-23T20:39:07.219Z,12.43
2019-03-23T20:41:37.975Z,12.43
2019-03-23T20:44:09.761Z,12.39
2019-03-23T20:46:37.798Z,12.30
2019-03-23T20:49:07.107Z,12.26
2019-03-23T20:51:36.105Z,12.25
2019-03-23T20:54:05.038Z,12.24
2019-03-23T20:56:39.064Z,12.21
2019-03-23T20:59:08.412Z,12.38
2019-03-23T21:01:37.401Z,12.35
2019-03-23T21:04:06.593Z,12.30
2019-03-23T21:06:35.749Z,12.16
2019-03-23T21:09:06.640Z,12.22
2019-03-23T21:11:35.891Z,12.20
2019-03-23T21:14:04.779Z,12.17
2019-03-23T21:16:34.027Z,12.12
2019-03-23T21:19:03.141Z,12.16
2019-03-23T21:21:32.136Z,12.15
2019-03-23T21:24:01.038Z,12.12
2019-03-23T21:26:32.889Z,12.17
2019-03-23T21:29:01.810Z,12.05
2019-03-23T21:31:30.665Z,11.94
2019-03-23T21:33:59.775Z,11.92
2019-03-23T21:36:28.991Z,11.84
2019-03-23T21:38:57.827Z,11.87
2019-03-23T21:41:26.681Z,11.86
2019-03-23T21:43:55.498Z,11.86
2019-03-23T21:46:27.104Z,11.77
2019-03-23T21:48:56.427Z,11.69
2019-03-23T21:51:27.153Z,11.72
2019-03-23T21:53:55.978Z,11.72
2019-03-23T21:56:24.880Z,11.68
2019-03-23T21:58:54.232Z,11.63
2019-03-23T22:01:23.467Z,11.59
2019-03-23T22:03:52.390Z,11.60
2019-03-23T22:06:21.302Z,11.52
2019-03-23T22:08:50.193Z,11.47
2019-03-23T22:11:19.061Z,11.46
2019-03-23T22:13:47.891Z,11.34
2019-03-23T22:16:17.293Z,11.29
2019-03-23T22:18:47.420Z,11.30
2019-03-23T22:21:16.286Z,11.30
2019-03-23T22:23:45.074Z,11.22
2019-03-23T22:26:13.840Z,11.18
2019-03-23T22:28:42.685Z,11.19
2019-03-23T22:31:11.512Z,11.21
2019-03-23T22:33:40.307Z,11.27
2019-03-23T22:36:09.391Z,11.19
2019-03-23T22:38:38.124Z,11.16
2019-03-23T22:41:06.906Z,11.18
2019-03-23T22:43:36.042Z,11.15
2019-03-23T22:46:17.423Z,11.03
2019-03-23T22:48:48.889Z,10.97
2019-03-23T22:51:17.787Z,10.78
2019-03-23T22:53:46.572Z,10.91
2019-03-23T22:56:15.572Z,10.84
2019-03-23T22:58:44.425Z,10.96
2019-03-23T23:01:13.794Z,10.82
2019-03-23T23:03:42.817Z,10.74
2019-03-23T23:06:11.722Z,10.77
2019-03-23T23:08:40.501Z,10.75
2019-03-23T23:11:09.407Z,10.68
2019-03-23T23:13:38.219Z,10.71
2019-03-23T23:16:07.352Z,10.70
2019-03-23T23:18:36.555Z,10.68
2019-03-23T23:21:05.389Z,10.61
2019-03-23T23:23:34.527Z,10.59
2019-03-23T23:26:03.497Z,10.47
2019-03-23T23:28:32.371Z,10.44
2019-03-23T23:31:01.517Z,10.41
2019-03-23T23:33:30.329Z,10.30
2019-03-23T23:35:59.593Z,10.36
2019-03-23T23:38:28.555Z,10.29
2019-03-23T23:40:57.667Z,10.22
2019-03-23T23:43:26.716Z,10.17
2019-03-23T23:45:55.568Z,9.95
2019-03-23T23:48:24.447Z,9.93
2019-03-23T23:50:53.994Z,10.16
2019-03-23T23:53:22.903Z,10.21
2019-03-23T23:55:51.731Z,10.06
2019-03-23T23:58:20.622Z,9.95
